sensor_id;sensor_type;location;lat;lon;timestamp;pressure;altitude;pressure_sealevel;temperature;humidity
74895;BME280;63447;49.446;8.666;2022-09-27T00:00:42;98639.31;;;9.87;88.08
74895;BME280;63447;49.446;8.666;2022-09-27T00:03:11;98655.06;;;9.87;88.14
74895;BME280;63447;49.446;8.666;2022-09-27T00:05:41;98642.91;;;9.92;87.16
74895;BME280;63447;49.446;8.666;2022-09-27T00:08:09;98619.81;;;9.73;87.55
74895;BME280;63447;49.446;8.666;2022-09-27T00:10:35;98645.44;;;9.77;88.18
74895;BME280;63447;49.446;8.666;2022-09-27T00:13:03;98647.03;;;9.78;88.35
74895;BME280;63447;49.446;8.666;2022-09-27T00:15:28;98644.34;;;9.82;88.07
74895;BME280;63447;49.446;8.666;2022-09-27T00:17:56;98631.69;;;9.77;88.88
74895;BME280;63447;49.446;8.666;2022-09-27T00:20:21;98634.81;;;9.76;87.94
74895;BME280;63447;49.446;8.666;2022-09-27T00:22:50;98639.09;;;9.73;88.30
74895;BME280;63447;49.446;8.666;2022-09-27T00:25:16;98630.09;;;9.76;88.28
74895;BME280;63447;49.446;8.666;2022-09-27T00:27:41;98600.44;;;9.43;88.58
74895;BME280;63447;49.446;8.666;2022-09-27T00:30:09;98636.41;;;9.77;88.29
74895;BME280;63447;49.446;8.666;2022-09-27T00:32:35;98623.78;;;9.76;88.83
74895;BME280;63447;49.446;8.666;2022-09-27T00:35:03;98624.59;;;9.76;88.77
74895;BME280;63447;49.446;8.666;2022-09-27T00:37:29;98626.31;;;9.88;88.50
74895;BME280;63447;49.446;8.666;2022-09-27T00:39:56;98611.13;;;9.98;87.63
74895;BME280;63447;49.446;8.666;2022-09-27T00:42:24;98615.53;;;9.76;88.16
74895;BME280;63447;49.446;8.666;2022-09-27T00:45:00;98618.78;;;9.81;88.94
74895;BME280;63447;49.446;8.666;2022-09-27T00:47:31;98594.44;;;9.61;89.53
74895;BME280;63447;49.446;8.666;2022-09-27T00:52:27;98611.34;;;9.85;89.49
74895;BME280;63447;49.446;8.666;2022-09-27T00:55:03;98609.16;;;9.72;89.03
74895;BME280;63447;49.446;8.666;2022-09-27T00:57:31;98590.31;;;9.74;88.99
74895;BME280;63447;49.446;8.666;2022-09-27T01:00:06;98615.00;;;9.93;89.40
74895;BME280;63447;49.446;8.666;2022-09-27T01:02:37;98599.84;;;10.06;87.63
74895;BME280;63447;49.446;8.666;2022-09-27T01:05:11;98601.34;;;10.00;88.87
74895;BME280;63447;49.446;8.666;2022-09-27T01:07:40;98588.84;;;10.06;88.57
74895;BME280;63447;49.446;8.666;2022-09-27T01:10:06;98599.56;;;10.15;87.79
74895;BME280;63447;49.446;8.666;2022-09-27T01:12:50;98600.72;;;10.14;87.06
74895;BME280;63447;49.446;8.666;2022-09-27T01:34:06;98598.38;;;10.12;88.22
74895;BME280;63447;49.446;8.666;2022-09-27T01:42:14;98597.59;;;10.15;87.72
74895;BME280;63447;49.446;8.666;2022-09-27T01:47:44;98595.66;;;10.16;87.81
74895;BME280;63447;49.446;8.666;2022-09-27T01:50:18;98599.25;;;9.94;88.32
74895;BME280;63447;49.446;8.666;2022-09-27T01:52:49;98592.59;;;9.95;88.79
74895;BME280;63447;49.446;8.666;2022-09-27T01:55:18;98576.44;;;9.93;88.47
74895;BME280;63447;49.446;8.666;2022-09-27T01:57:49;98593.00;;;9.97;88.18
74895;BME280;63447;49.446;8.666;2022-09-27T02:00:17;98602.69;;;10.13;88.38
74895;BME280;63447;49.446;8.666;2022-09-27T02:02:57;98603.53;;;10.17;88.29
74895;BME280;63447;49.446;8.666;2022-09-27T02:05:32;98601.16;;;10.16;88.47
74895;BME280;63447;49.446;8.666;2022-09-27T02:08:07;98598.31;;;10.09;88.73
74895;BME280;63447;49.446;8.666;2022-09-27T02:10:41;98595.50;;;10.05;88.78
74895;BME280;63447;49.446;8.666;2022-09-27T02:13:19;98603.84;;;10.09;88.25
74895;BME280;63447;49.446;8.666;2022-09-27T02:21:46;98590.06;;;10.09;88.91
74895;BME280;63447;49.446;8.666;2022-09-27T02:24:20;98600.44;;;10.19;88.42
74895;BME280;63447;49.446;8.666;2022-09-27T02:27:00;98588.59;;;10.18;87.28
74895;BME280;63447;49.446;8.666;2022-09-27T02:29:37;98603.31;;;10.26;87.99
74895;BME280;63447;49.446;8.666;2022-09-27T02:32:06;98607.97;;;10.22;88.75
74895;BME280;63447;49.446;8.666;2022-09-27T02:34:38;98600.66;;;10.33;87.46
74895;BME280;63447;49.446;8.666;2022-09-27T02:37:07;98559.69;;;10.05;86.72
74895;BME280;63447;49.446;8.666;2022-09-27T02:39:32;98595.34;;;10.21;87.91
74895;BME280;63447;49.446;8.666;2022-09-27T02:41:58;98603.63;;;10.21;88.36
74895;BME280;63447;49.446;8.666;2022-09-27T02:44:25;98604.41;;;10.22;88.54
74895;BME280;63447;49.446;8.666;2022-09-27T02:49:47;98625.09;;;10.35;87.40
74895;BME280;63447;49.446;8.666;2022-09-27T03:00:33;98635.69;;;10.33;88.07
74895;BME280;63447;49.446;8.666;2022-09-27T03:03:13;98635.59;;;10.26;87.42
74895;BME280;63447;49.446;8.666;2022-09-27T03:05:53;98635.53;;;10.22;87.61
74895;BME280;63447;49.446;8.666;2022-09-27T03:08:23;98621.31;;;10.20;87.29
74895;BME280;63447;49.446;8.666;2022-09-27T03:10:48;98630.22;;;10.10;88.32
74895;BME280;63447;49.446;8.666;2022-09-27T03:13:16;98624.91;;;9.98;88.61
74895;BME280;63447;49.446;8.666;2022-09-27T03:15:44;98633.28;;;10.05;88.16
74895;BME280;63447;49.446;8.666;2022-09-27T03:18:09;98633.84;;;10.17;88.25
74895;BME280;63447;49.446;8.666;2022-09-27T03:20:35;98645.34;;;10.19;87.52
74895;BME280;63447;49.446;8.666;2022-09-27T03:23:02;98655.66;;;10.00;88.08
74895;BME280;63447;49.446;8.666;2022-09-27T03:25:28;98656.69;;;10.18;87.51
74895;BME280;63447;49.446;8.666;2022-09-27T03:27:53;98662.13;;;10.11;87.75
74895;BME280;63447;49.446;8.666;2022-09-27T03:30:21;98655.47;;;10.15;87.53
74895;BME280;63447;49.446;8.666;2022-09-27T03:32:47;98645.06;;;10.02;87.89
74895;BME280;63447;49.446;8.666;2022-09-27T03:35:12;98645.41;;;10.00;87.71
74895;BME280;63447;49.446;8.666;2022-09-27T03:37:38;98668.81;;;10.10;87.82
74895;BME280;63447;49.446;8.666;2022-09-27T03:40:04;98672.00;;;10.12;88.53
74895;BME280;63447;49.446;8.666;2022-09-27T03:42:30;98669.22;;;10.35;86.73
74895;BME280;63447;49.446;8.666;2022-09-27T03:44:55;98652.13;;;10.26;86.93
74895;BME280;63447;49.446;8.666;2022-09-27T03:47:21;98668.28;;;10.27;86.58
74895;BME280;63447;49.446;8.666;2022-09-27T03:49:47;98668.28;;;10.27;86.88
74895;BME280;63447;49.446;8.666;2022-09-27T03:52:13;98661.72;;;10.35;86.41
74895;BME280;63447;49.446;8.666;2022-09-27T03:54:38;98666.09;;;10.40;85.76
74895;BME280;63447;49.446;8.666;2022-09-27T03:57:04;98668.88;;;10.40;86.44
74895;BME280;63447;49.446;8.666;2022-09-27T03:59:29;98665.28;;;10.36;86.20
74895;BME280;63447;49.446;8.666;2022-09-27T04:01:55;98680.69;;;10.40;85.91
74895;BME280;63447;49.446;8.666;2022-09-27T04:04:22;98679.13;;;10.39;84.72
74895;BME280;63447;49.446;8.666;2022-09-27T04:06:48;98681.81;;;10.36;85.43
74895;BME280;63447;49.446;8.666;2022-09-27T04:09:14;98668.25;;;10.24;85.35
74895;BME280;63447;49.446;8.666;2022-09-27T04:11:39;98669.78;;;10.21;86.14
74895;BME280;63447;49.446;8.666;2022-09-27T04:14:04;98694.69;;;10.28;86.65
74895;BME280;63447;49.446;8.666;2022-09-27T04:16:30;98689.88;;;10.22;85.38
74895;BME280;63447;49.446;8.666;2022-09-27T04:18:56;98688.34;;;10.24;84.70
74895;BME280;63447;49.446;8.666;2022-09-27T04:21:24;98699.34;;;10.24;84.27
74895;BME280;63447;49.446;8.666;2022-09-27T04:23:50;98660.41;;;10.03;84.63
74895;BME280;63447;49.446;8.666;2022-09-27T04:26:17;98707.25;;;10.26;85.00
74895;BME280;63447;49.446;8.666;2022-09-27T04:28:45;98704.13;;;10.27;83.20
74895;BME280;63447;49.446;8.666;2022-09-27T04:31:11;98698.19;;;10.25;84.28
74895;BME280;63447;49.446;8.666;2022-09-27T04:33:37;98715.28;;;10.34;83.82
74895;BME280;63447;49.446;8.666;2022-09-27T04:36:02;98711.34;;;10.35;83.46
74895;BME280;63447;49.446;8.666;2022-09-27T04:38:46;98711.34;;;10.35;83.86
74895;BME280;63447;49.446;8.666;2022-09-27T04:41:12;98720.06;;;10.37;83.68
74895;BME280;63447;49.446;8.666;2022-09-27T04:43:39;98722.84;;;10.41;83.51
74895;BME280;63447;49.446;8.666;2022-09-27T04:46:05;98717.81;;;10.46;82.43
74895;BME280;63447;49.446;8.666;2022-09-27T04:48:30;98725.59;;;10.41;82.84
74895;BME280;63447;49.446;8.666;2022-09-27T04:51:00;98680.19;;;10.08;82.71
74895;BME280;63447;49.446;8.666;2022-09-27T04:53:27;98726.31;;;10.34;81.22
74895;BME280;63447;49.446;8.666;2022-09-27T04:55:54;98734.94;;;10.33;82.21
74895;BME280;63447;49.446;8.666;2022-09-27T04:58:20;98718.84;;;10.12;81.55
74895;BME280;63447;49.446;8.666;2022-09-27T05:00:48;98734.75;;;10.22;82.46
74895;BME280;63447;49.446;8.666;2022-09-27T05:03:16;98736.78;;;10.25;82.07
74895;BME280;63447;49.446;8.666;2022-09-27T05:05:42;98736.00;;;10.25;82.17
74895;BME280;63447;49.446;8.666;2022-09-27T05:08:08;98731.34;;;10.29;81.58
74895;BME280;63447;49.446;8.666;2022-09-27T05:10:33;98705.44;;;10.10;81.32
74895;BME280;63447;49.446;8.666;2022-09-27T05:12:58;98745.59;;;10.34;81.92
74895;BME280;63447;49.446;8.666;2022-09-27T05:15:24;98743.97;;;10.56;81.75
74895;BME280;63447;49.446;8.666;2022-09-27T05:17:50;98750.66;;;10.55;79.13
74895;BME280;63447;49.446;8.666;2022-09-27T05:20:16;98750.28;;;10.57;80.54
74895;BME280;63447;49.446;8.666;2022-09-27T05:22:41;98756.63;;;10.61;80.85
74895;BME280;63447;49.446;8.666;2022-09-27T05:25:07;98761.41;;;10.37;80.69
74895;BME280;63447;49.446;8.666;2022-09-27T05:27:32;98761.91;;;10.46;80.13
74895;BME280;63447;49.446;8.666;2022-09-27T05:30:00;98772.88;;;10.39;80.52
74895;BME280;63447;49.446;8.666;2022-09-27T05:32:26;98774.75;;;10.35;80.19
74895;BME280;63447;49.446;8.666;2022-09-27T05:34:56;98768.81;;;10.33;80.17
74895;BME280;63447;49.446;8.666;2022-09-27T05:37:22;98767.09;;;10.25;80.15
74895;BME280;63447;49.446;8.666;2022-09-27T05:39:47;98784.50;;;10.29;80.19
74895;BME280;63447;49.446;8.666;2022-09-27T05:42:14;98787.75;;;10.35;79.91
74895;BME280;63447;49.446;8.666;2022-09-27T05:44:42;98791.59;;;10.30;79.52
74895;BME280;63447;49.446;8.666;2022-09-27T05:47:14;98798.59;;;10.24;79.64
74895;BME280;63447;49.446;8.666;2022-09-27T05:49:40;98778.31;;;10.13;80.57
74895;BME280;63447;49.446;8.666;2022-09-27T05:52:06;98783.81;;;10.13;80.60
74895;BME280;63447;49.446;8.666;2022-09-27T05:54:31;98792.09;;;10.13;81.04
74895;BME280;63447;49.446;8.666;2022-09-27T05:56:57;98803.66;;;10.22;81.06
74895;BME280;63447;49.446;8.666;2022-09-27T05:59:26;98811.94;;;10.22;80.66
74895;BME280;63447;49.446;8.666;2022-09-27T06:01:52;98803.47;;;10.11;81.51
74895;BME280;63447;49.446;8.666;2022-09-27T06:04:19;98813.63;;;10.07;81.40
74895;BME280;63447;49.446;8.666;2022-09-27T06:06:47;98819.78;;;10.20;81.48
74895;BME280;63447;49.446;8.666;2022-09-27T06:09:13;98823.03;;;10.26;80.72
74895;BME280;63447;49.446;8.666;2022-09-27T06:11:40;98818.72;;;10.05;80.47
74895;BME280;63447;49.446;8.666;2022-09-27T06:14:07;98817.53;;;10.26;80.14
74895;BME280;63447;49.446;8.666;2022-09-27T06:16:32;98813.59;;;10.27;80.27
74895;BME280;63447;49.446;8.666;2022-09-27T06:18:57;98821.56;;;10.32;80.05
74895;BME280;63447;49.446;8.666;2022-09-27T06:21:23;98809.78;;;10.12;78.29
74895;BME280;63447;49.446;8.666;2022-09-27T06:23:49;98811.66;;;10.08;79.53
74895;BME280;63447;49.446;8.666;2022-09-27T06:26:15;98825.28;;;10.20;78.93
74895;BME280;63447;49.446;8.666;2022-09-27T06:28:44;98797.47;;;10.06;80.34
74895;BME280;63447;49.446;8.666;2022-09-27T06:31:11;98814.88;;;10.10;80.23
74895;BME280;63447;49.446;8.666;2022-09-27T06:33:41;98833.56;;;10.20;79.35
74895;BME280;63447;49.446;8.666;2022-09-27T06:36:07;98822.44;;;10.16;80.80
74895;BME280;63447;49.446;8.666;2022-09-27T06:38:33;98828.75;;;10.17;80.89
74895;BME280;63447;49.446;8.666;2022-09-27T06:41:03;98839.13;;;10.24;80.11
74895;BME280;63447;49.446;8.666;2022-09-27T06:43:33;98840.50;;;10.14;79.56
74895;BME280;63447;49.446;8.666;2022-09-27T06:45:59;98815.53;;;10.03;79.64
74895;BME280;63447;49.446;8.666;2022-09-27T06:48:30;98846.97;;;10.22;81.01
74895;BME280;63447;49.446;8.666;2022-09-27T06:50:56;98840.00;;;10.28;79.55
74895;BME280;63447;49.446;8.666;2022-09-27T06:53:22;98843.69;;;10.16;80.80
74895;BME280;63447;49.446;8.666;2022-09-27T06:55:48;98847.34;;;10.20;81.08
74895;BME280;63447;49.446;8.666;2022-09-27T06:58:16;98848.19;;;10.24;80.25
74895;BME280;63447;49.446;8.666;2022-09-27T07:01:00;98857.41;;;10.54;79.09
74895;BME280;63447;49.446;8.666;2022-09-27T07:03:28;98857.63;;;10.46;79.67
74895;BME280;63447;49.446;8.666;2022-09-27T07:06:00;98832.53;;;10.28;79.44
74895;BME280;63447;49.446;8.666;2022-09-27T07:08:26;98844.84;;;10.34;79.68
74895;BME280;63447;49.446;8.666;2022-09-27T07:10:59;98872.88;;;10.40;79.13
74895;BME280;63447;49.446;8.666;2022-09-27T07:13:25;98877.78;;;10.27;81.01
74895;BME280;63447;49.446;8.666;2022-09-27T07:15:50;98861.13;;;10.20;81.02
74895;BME280;63447;49.446;8.666;2022-09-27T07:18:18;98865.59;;;10.28;80.50
74895;BME280;63447;49.446;8.666;2022-09-27T07:20:44;98885.28;;;10.27;81.06
74895;BME280;63447;49.446;8.666;2022-09-27T07:23:10;98891.47;;;10.43;79.73
74895;BME280;63447;49.446;8.666;2022-09-27T07:25:36;98887.91;;;10.42;80.74
74895;BME280;63447;49.446;8.666;2022-09-27T07:28:03;98874.75;;;10.32;79.70
74895;BME280;63447;49.446;8.666;2022-09-27T07:30:32;98897.16;;;10.53;79.43
74895;BME280;63447;49.446;8.666;2022-09-27T07:33:02;98901.59;;;10.58;78.31
74895;BME280;63447;49.446;8.666;2022-09-27T07:35:30;98907.97;;;10.62;79.17
74895;BME280;63447;49.446;8.666;2022-09-27T07:37:56;98913.59;;;10.69;78.99
74895;BME280;63447;49.446;8.666;2022-09-27T07:40:25;98920.53;;;10.82;78.25
74895;BME280;63447;49.446;8.666;2022-09-27T07:42:57;98894.28;;;10.46;79.07
74895;BME280;63447;49.446;8.666;2022-09-27T07:45:24;98928.53;;;10.68;79.14
74895;BME280;63447;49.446;8.666;2022-09-27T07:47:50;98924.31;;;10.51;78.45
74895;BME280;63447;49.446;8.666;2022-09-27T07:50:18;98927.31;;;10.66;77.46
74895;BME280;63447;49.446;8.666;2022-09-27T07:52:45;98937.50;;;10.62;78.03
74895;BME280;63447;49.446;8.666;2022-09-27T07:55:16;98940.28;;;10.62;78.07
74895;BME280;63447;49.446;8.666;2022-09-27T07:57:42;98923.22;;;10.33;78.74
74895;BME280;63447;49.446;8.666;2022-09-27T08:00:12;98923.44;;;10.47;77.29
74895;BME280;63447;49.446;8.666;2022-09-27T08:02:43;98957.19;;;10.60;77.21
74895;BME280;63447;49.446;8.666;2022-09-27T08:05:13;98950.50;;;10.61;76.54
74895;BME280;63447;49.446;8.666;2022-09-27T08:07:39;98948.03;;;10.56;77.12
74895;BME280;63447;49.446;8.666;2022-09-27T08:10:06;98953.56;;;10.56;76.22
74895;BME280;63447;49.446;8.666;2022-09-27T08:12:32;98952.91;;;10.63;75.51
74895;BME280;63447;49.446;8.666;2022-09-27T08:14:58;98918.56;;;10.37;75.48
74895;BME280;63447;49.446;8.666;2022-09-27T08:17:28;98954.44;;;10.60;75.89
74895;BME280;63447;49.446;8.666;2022-09-27T08:19:54;98954.50;;;10.64;76.44
74895;BME280;63447;49.446;8.666;2022-09-27T08:22:24;98933.03;;;10.53;76.23
74895;BME280;63447;49.446;8.666;2022-09-27T08:24:51;98953.56;;;10.79;76.57
74895;BME280;63447;49.446;8.666;2022-09-27T08:27:19;98957.13;;;10.79;76.69
74895;BME280;63447;49.446;8.666;2022-09-27T08:29:47;98951.25;;;10.81;76.13
74895;BME280;63447;49.446;8.666;2022-09-27T08:32:13;98959.09;;;10.79;76.77
74895;BME280;63447;49.446;8.666;2022-09-27T08:34:38;98943.03;;;10.62;77.84
74895;BME280;63447;49.446;8.666;2022-09-27T08:37:04;98957.41;;;10.97;76.01
74895;BME280;63447;49.446;8.666;2022-09-27T08:39:32;98964.53;;;10.98;76.19
74895;BME280;63447;49.446;8.666;2022-09-27T08:47:36;98969.25;;;10.98;74.53
74895;BME280;63447;49.446;8.666;2022-09-27T08:50:25;98972.34;;;11.19;74.12
74895;BME280;63447;49.446;8.666;2022-09-27T08:52:59;98945.75;;;11.07;73.83
74895;BME280;63447;49.446;8.666;2022-09-27T08:55:40;98967.59;;;11.16;73.12
74895;BME280;63447;49.446;8.666;2022-09-27T08:58:29;98963.63;;;11.13;72.23
74895;BME280;63447;49.446;8.666;2022-09-27T09:00:58;98959.44;;;11.00;73.23
74895;BME280;63447;49.446;8.666;2022-09-27T09:03:28;98970.13;;;11.02;74.32
74895;BME280;63447;49.446;8.666;2022-09-27T09:12:23;98984.63;;;11.21;75.49
74895;BME280;63447;49.446;8.666;2022-09-27T09:15:24;98982.19;;;10.94;76.13
74895;BME280;63447;49.446;8.666;2022-09-27T09:33:58;98976.34;;;11.74;74.08
74895;BME280;63447;49.446;8.666;2022-09-27T09:36:33;98965.91;;;11.61;73.53
74895;BME280;63447;49.446;8.666;2022-09-27T09:41:41;98965.44;;;11.81;71.81
74895;BME280;63447;49.446;8.666;2022-09-27T09:44:27;98955.34;;;11.66;71.96
74895;BME280;63447;49.446;8.666;2022-09-27T09:46:56;98972.06;;;11.77;71.96
74895;BME280;63447;49.446;8.666;2022-09-27T09:51:58;98965.53;;;11.88;71.08
74895;BME280;63447;49.446;8.666;2022-09-27T09:54:31;98965.06;;;11.83;69.67
74895;BME280;63447;49.446;8.666;2022-09-27T09:57:09;98964.13;;;11.75;69.24
74895;BME280;63447;49.446;8.666;2022-09-27T10:00:16;98963.31;;;11.75;69.13
74895;BME280;63447;49.446;8.666;2022-09-27T10:02:44;98974.13;;;11.83;68.90
74895;BME280;63447;49.446;8.666;2022-09-27T10:05:24;98955.75;;;11.68;71.29
74895;BME280;63447;49.446;8.666;2022-09-27T10:07:52;98956.88;;;11.90;69.95
74895;BME280;63447;49.446;8.666;2022-09-27T10:10:22;98962.84;;;11.96;69.63
74895;BME280;63447;49.446;8.666;2022-09-27T10:12:48;98959.84;;;12.08;70.91
74895;BME280;63447;49.446;8.666;2022-09-27T10:15:17;98967.16;;;11.93;71.73
74895;BME280;63447;49.446;8.666;2022-09-27T10:17:45;98967.72;;;12.06;70.40
74895;BME280;63447;49.446;8.666;2022-09-27T10:22:53;98933.66;;;11.72;70.73
74895;BME280;63447;49.446;8.666;2022-09-27T10:25:22;98965.22;;;11.67;71.41
74895;BME280;63447;49.446;8.666;2022-09-27T10:27:51;98977.63;;;11.54;70.58
74895;BME280;63447;49.446;8.666;2022-09-27T10:32:53;98951.19;;;11.27;71.37
74895;BME280;63447;49.446;8.666;2022-09-27T10:35:42;98962.06;;;11.16;71.30
74895;BME280;63447;49.446;8.666;2022-09-27T10:40:41;98967.00;;;11.30;70.89
74895;BME280;63447;49.446;8.666;2022-09-27T10:43:37;98970.88;;;11.25;70.45
74895;BME280;63447;49.446;8.666;2022-09-27T10:46:03;98967.00;;;11.56;70.33
74895;BME280;63447;49.446;8.666;2022-09-27T10:48:29;98970.53;;;11.53;70.37
74895;BME280;63447;49.446;8.666;2022-09-27T10:51:20;98925.78;;;11.17;69.57
74895;BME280;63447;49.446;8.666;2022-09-27T10:53:47;98953.09;;;11.49;71.00
74895;BME280;63447;49.446;8.666;2022-09-27T10:56:22;98956.28;;;11.77;70.04
74895;BME280;63447;49.446;8.666;2022-09-27T10:58:49;98946.66;;;11.68;68.55
74895;BME280;63447;49.446;8.666;2022-09-27T11:01:15;98955.03;;;11.75;68.19
74895;BME280;63447;49.446;8.666;2022-09-27T11:03:53;98946.78;;;12.05;68.33
74895;BME280;63447;49.446;8.666;2022-09-27T11:08:48;98957.31;;;12.29;67.01
74895;BME280;63447;49.446;8.666;2022-09-27T11:14:00;98959.63;;;11.90;69.71
74895;BME280;63447;49.446;8.666;2022-09-27T11:17:01;98927.00;;;12.03;67.46
74895;BME280;63447;49.446;8.666;2022-09-27T11:30:20;98944.75;;;12.02;68.17
74895;BME280;63447;49.446;8.666;2022-09-27T11:41:17;98917.97;;;12.87;66.07
74895;BME280;63447;49.446;8.666;2022-09-27T11:46:36;98915.84;;;12.29;67.00
74895;BME280;63447;49.446;8.666;2022-09-27T11:52:54;98908.94;;;12.49;65.89
74895;BME280;63447;49.446;8.666;2022-09-27T12:09:02;98920.75;;;11.49;70.72
74895;BME280;63447;49.446;8.666;2022-09-27T12:16:36;98915.88;;;11.13;75.36
74895;BME280;63447;49.446;8.666;2022-09-27T12:19:03;98907.88;;;11.31;76.28
74895;BME280;63447;49.446;8.666;2022-09-27T12:21:33;98889.22;;;11.24;75.84
74895;BME280;63447;49.446;8.666;2022-09-27T12:24:00;98876.06;;;11.44;77.20
74895;BME280;63447;49.446;8.666;2022-09-27T12:29:43;98873.25;;;11.70;76.72
74895;BME280;63447;49.446;8.666;2022-09-27T12:34:41;98877.69;;;12.93;69.90
74895;BME280;63447;49.446;8.666;2022-09-27T12:45:30;98855.88;;;21.26;45.35
74895;BME280;63447;49.446;8.666;2022-09-27T12:51:00;98850.34;;;20.90;41.03
74895;BME280;63447;49.446;8.666;2022-09-27T12:59:04;98849.84;;;24.03;38.54
74895;BME280;63447;49.446;8.666;2022-09-27T13:12:52;98849.00;;;17.32;50.75
74895;BME280;63447;49.446;8.666;2022-09-27T13:15:33;98838.97;;;16.48;50.74
74895;BME280;63447;49.446;8.666;2022-09-27T13:18:01;98837.72;;;15.90;51.00
74895;BME280;63447;49.446;8.666;2022-09-27T13:26:20;98837.94;;;12.64;65.84
74895;BME280;63447;49.446;8.666;2022-09-27T13:31:12;98838.38;;;12.70;67.38
74895;BME280;63447;49.446;8.666;2022-09-27T13:46:59;98815.19;;;13.61;65.72
74895;BME280;63447;49.446;8.666;2022-09-27T13:49:30;98812.38;;;13.47;65.43
74895;BME280;63447;49.446;8.666;2022-09-27T13:52:02;98827.69;;;13.23;60.97
74895;BME280;63447;49.446;8.666;2022-09-27T13:54:56;98824.13;;;13.26;60.83
74895;BME280;63447;49.446;8.666;2022-09-27T13:57:50;98836.50;;;13.43;61.02
74895;BME280;63447;49.446;8.666;2022-09-27T14:05:38;98814.16;;;13.14;61.00
74895;BME280;63447;49.446;8.666;2022-09-27T14:10:48;98840.53;;;13.63;59.35
74895;BME280;63447;49.446;8.666;2022-09-27T14:13:18;98837.75;;;13.59;58.62
74895;BME280;63447;49.446;8.666;2022-09-27T14:15:47;98841.84;;;14.05;58.36
74895;BME280;63447;49.446;8.666;2022-09-27T14:18:14;98849.31;;;13.76;58.17
74895;BME280;63447;49.446;8.666;2022-09-27T14:20:42;98850.94;;;13.91;61.01
74895;BME280;63447;49.446;8.666;2022-09-27T14:23:19;98854.44;;;13.74;62.50
74895;BME280;63447;49.446;8.666;2022-09-27T14:25:47;98844.34;;;14.67;59.96
74895;BME280;63447;49.446;8.666;2022-09-27T14:30:44;98836.81;;;14.92;57.96
74895;BME280;63447;49.446;8.666;2022-09-27T14:33:27;98842.75;;;14.87;59.08
74895;BME280;63447;49.446;8.666;2022-09-27T14:35:53;98834.84;;;14.50;59.93
74895;BME280;63447;49.446;8.666;2022-09-27T14:38:37;98836.34;;;14.12;59.76
74895;BME280;63447;49.446;8.666;2022-09-27T14:41:06;98841.50;;;15.27;58.07
74895;BME280;63447;49.446;8.666;2022-09-27T14:43:36;98838.00;;;15.05;59.05
74895;BME280;63447;49.446;8.666;2022-09-27T14:46:06;98844.34;;;14.84;59.53
74895;BME280;63447;49.446;8.666;2022-09-27T14:48:32;98840.00;;;14.51;59.41
74895;BME280;63447;49.446;8.666;2022-09-27T14:51:14;98836.44;;;14.51;60.97
74895;BME280;63447;49.446;8.666;2022-09-27T14:53:50;98837.16;;;14.37;60.63
74895;BME280;63447;49.446;8.666;2022-09-27T14:56:24;98843.06;;;14.11;60.60
74895;BME280;63447;49.446;8.666;2022-09-27T14:58:58;98844.25;;;14.10;62.39
74895;BME280;63447;49.446;8.666;2022-09-27T15:01:27;98850.56;;;14.03;61.44
74895;BME280;63447;49.446;8.666;2022-09-27T15:03:53;98849.00;;;14.02;61.30
74895;BME280;63447;49.446;8.666;2022-09-27T15:06:22;98846.97;;;13.92;61.16
74895;BME280;63447;49.446;8.666;2022-09-27T15:08:51;98848.13;;;13.73;61.57
74895;BME280;63447;49.446;8.666;2022-09-27T15:11:18;98841.16;;;13.24;61.42
74895;BME280;63447;49.446;8.666;2022-09-27T15:13:45;98856.78;;;12.99;63.10
74895;BME280;63447;49.446;8.666;2022-09-27T15:16:18;98849.81;;;14.13;59.69
74895;BME280;63447;49.446;8.666;2022-09-27T15:18:46;98844.75;;;13.36;60.47
74895;BME280;63447;49.446;8.666;2022-09-27T15:21:35;98853.09;;;13.39;61.38
74895;BME280;63447;49.446;8.666;2022-09-27T15:23:59;98859.84;;;13.42;62.19
74895;BME280;63447;49.446;8.666;2022-09-27T15:28:58;98862.34;;;12.55;64.10
74895;BME280;63447;49.446;8.666;2022-09-27T15:31:35;98867.47;;;12.12;65.04
74895;BME280;63447;49.446;8.666;2022-09-27T15:34:02;98862.44;;;11.84;67.03
74895;BME280;63447;49.446;8.666;2022-09-27T15:39:40;98870.28;;;11.82;67.57
74895;BME280;63447;49.446;8.666;2022-09-27T15:42:05;98874.78;;;11.94;67.42
74895;BME280;63447;49.446;8.666;2022-09-27T15:47:02;98888.19;;;11.62;69.47
74895;BME280;63447;49.446;8.666;2022-09-27T15:49:29;98859.72;;;11.58;69.33
74895;BME280;63447;49.446;8.666;2022-09-27T15:51:57;98882.56;;;11.55;70.60
74895;BME280;63447;49.446;8.666;2022-09-27T15:54:26;98873.75;;;11.46;69.15
74895;BME280;63447;49.446;8.666;2022-09-27T15:56:55;98881.16;;;11.38;70.28
74895;BME280;63447;49.446;8.666;2022-09-27T15:59:22;98880.03;;;11.43;68.68
74895;BME280;63447;49.446;8.666;2022-09-27T16:01:49;98883.38;;;11.29;70.46
74895;BME280;63447;49.446;8.666;2022-09-27T16:04:15;98882.69;;;11.36;69.91
74895;BME280;63447;49.446;8.666;2022-09-27T16:06:40;98882.72;;;11.09;71.37
74895;BME280;63447;49.446;8.666;2022-09-27T16:09:16;98891.97;;;10.98;71.01
74895;BME280;63447;49.446;8.666;2022-09-27T16:11:47;98876.88;;;10.88;69.33
74895;BME280;63447;49.446;8.666;2022-09-27T16:14:13;98897.81;;;10.93;70.21
74895;BME280;63447;49.446;8.666;2022-09-27T16:16:49;98897.06;;;10.96;69.80
74895;BME280;63447;49.446;8.666;2022-09-27T16:19:15;98907.06;;;11.04;70.00
74895;BME280;63447;49.446;8.666;2022-09-27T16:21:41;98915.09;;;11.69;67.67
74895;BME280;63447;49.446;8.666;2022-09-27T16:24:10;98910.84;;;12.86;64.38
74895;BME280;63447;49.446;8.666;2022-09-27T16:26:36;98914.22;;;13.71;61.89
74895;BME280;63447;49.446;8.666;2022-09-27T16:29:02;98894.97;;;14.14;60.17
74895;BME280;63447;49.446;8.666;2022-09-27T16:31:27;98902.16;;;14.22;60.15
74895;BME280;63447;49.446;8.666;2022-09-27T16:33:52;98907.69;;;14.18;60.30
74895;BME280;63447;49.446;8.666;2022-09-27T16:36:18;98894.97;;;13.31;62.14
74895;BME280;63447;49.446;8.666;2022-09-27T16:38:49;98900.69;;;13.04;63.20
74895;BME280;63447;49.446;8.666;2022-09-27T16:41:15;98918.00;;;12.90;63.24
74895;BME280;63447;49.446;8.666;2022-09-27T16:43:44;98904.06;;;13.28;62.38